createdAt,value
2024-05-09T00:02:05.563Z,100353.16
2024-05-09T00:04:36.036Z,100360.94
2024-05-09T00:07:09.156Z,100356.91
2024-05-09T00:09:39.800Z,100363.88
2024-05-09T00:12:10.500Z,100363.13
2024-05-09T00:14:41.138Z,100361.47
2024-05-09T00:17:11.665Z,100362.41
2024-05-09T00:19:42.210Z,100365.88
2024-05-09T00:22:15.666Z,100356.44
2024-05-09T00:24:46.114Z,100357.38
2024-05-09T00:27:16.487Z,100356.34
2024-05-09T00:29:47.040Z,100353.78
2024-05-09T00:32:17.546Z,100353.78
2024-05-09T00:34:49.084Z,100358.00
2024-05-09T00:37:22.384Z,100341.81
2024-05-09T00:39:52.764Z,100347.75
2024-05-09T00:42:23.167Z,100350.13
2024-05-09T00:44:54.027Z,100348.41
2024-05-09T00:47:24.928Z,100346.66
2024-05-09T00:49:55.914Z,100348.41
2024-05-09T00:52:30.930Z,100348.41
2024-05-09T00:55:01.493Z,100343.28
2024-05-09T00:57:32.015Z,100356.09
2024-05-09T01:00:05.920Z,100347.56
2024-05-09T01:02:36.591Z,100346.75
2024-05-09T01:05:07.748Z,100343.38
2024-05-09T01:07:41.200Z,100345.09
2024-05-09T01:10:17.356Z,100341.72
2024-05-09T01:12:51.750Z,100340.91
2024-05-09T01:15:22.160Z,100335.84
2024-05-09T01:17:55.751Z,100336.69
2024-05-09T01:20:36.984Z,100340.97
2024-05-09T01:23:16.562Z,100333.38
2024-05-09T01:25:47.407Z,100332.53
2024-05-09T01:28:18.313Z,100328.22
2024-05-09T01:30:48.658Z,100329.09
2024-05-09T01:33:19.168Z,100331.66
2024-05-09T01:35:49.590Z,100335.03
2024-05-09T01:38:22.683Z,100339.34
2024-05-09T01:40:53.322Z,100331.66
2024-05-09T01:43:23.756Z,100334.38
2024-05-09T01:45:54.200Z,100334.44
2024-05-09T01:48:24.801Z,100334.53
2024-05-09T01:50:55.333Z,100338.09
2024-05-09T01:53:28.488Z,100341.56
2024-05-09T01:55:58.881Z,100336.53
2024-05-09T01:58:29.847Z,100322.09
2024-05-09T02:01:00.293Z,100328.31
2024-05-09T02:03:31.022Z,100324.09
2024-05-09T02:06:01.795Z,100321.72
2024-05-09T02:08:35.152Z,100309.06
2024-05-09T02:11:05.796Z,100325.34
2024-05-09T02:13:36.248Z,100323.72
2024-05-09T02:16:07.708Z,100324.72
2024-05-09T02:18:38.344Z,100324.81
2024-05-09T02:21:09.194Z,100328.16
2024-05-09T02:23:42.337Z,100327.44
2024-05-09T02:26:12.815Z,100328.44
2024-05-09T02:28:43.395Z,100332.72
2024-05-09T02:31:15.290Z,100326.78
2024-05-09T02:33:46.116Z,100331.16
2024-05-09T02:36:16.604Z,100329.53
2024-05-09T02:38:47.084Z,100331.34
2024-05-09T02:41:17.520Z,100332.25
2024-05-09T02:43:45.502Z,100334.09
2024-05-09T02:46:15.920Z,100325.56
2024-05-09T02:48:46.349Z,100328.22
2024-05-09T02:51:14.260Z,100323.19
2024-05-09T02:53:44.742Z,100324.94
2024-05-09T02:56:15.295Z,100328.38
2024-05-09T02:58:45.778Z,100324.16
2024-05-09T03:01:13.908Z,100326.81
2024-05-09T03:03:48.597Z,100331.13
2024-05-09T03:06:16.554Z,100325.25
2024-05-09T03:08:48.245Z,100327.00
2024-05-09T03:11:28.349Z,100337.16
2024-05-09T03:13:56.213Z,100329.56
2024-05-09T03:16:26.663Z,100336.44
2024-05-09T03:18:55.200Z,100328.09
2024-05-09T03:21:25.898Z,100323.13
2024-05-09T03:23:53.701Z,100325.75
2024-05-09T03:26:27.007Z,100329.34
2024-05-09T03:28:54.829Z,100333.72
2024-05-09T03:31:25.340Z,100333.78
2024-05-09T03:33:55.880Z,100332.22
2024-05-09T03:36:23.811Z,100337.53
2024-05-09T03:38:54.481Z,100335.06
2024-05-09T03:41:27.594Z,100340.19
2024-05-09T03:43:58.041Z,100332.56
2024-05-09T03:46:28.512Z,100339.41
2024-05-09T03:48:56.988Z,100333.56
2024-05-09T03:51:27.460Z,100331.91
2024-05-09T03:53:55.382Z,100334.56
2024-05-09T03:56:28.475Z,100328.69
2024-05-09T03:58:57.804Z,100331.25
2024-05-09T04:01:30.107Z,100328.78
2024-05-09T04:03:58.079Z,100333.16
2024-05-09T04:06:29.635Z,100331.50
2024-05-09T04:08:57.379Z,100335.88
2024-05-09T04:11:30.651Z,100334.19
2024-05-09T04:13:58.859Z,100340.22
2024-05-09T04:16:29.357Z,100341.94
2024-05-09T04:18:57.266Z,100338.56
2024-05-09T04:21:27.963Z,100337.75
2024-05-09T04:23:55.746Z,100339.56
2024-05-09T04:26:26.174Z,100337.81
2024-05-09T04:28:56.923Z,100341.31
2024-05-09T04:31:29.512Z,100346.44
2024-05-09T04:33:57.343Z,100342.94
2024-05-09T04:36:27.858Z,100350.63
2024-05-09T04:38:55.978Z,100353.19
2024-05-09T04:41:26.945Z,100349.72
2024-05-09T04:43:57.556Z,100349.72
2024-05-09T04:46:27.942Z,100356.50
2024-05-09T04:48:55.849Z,100357.31
2024-05-09T04:51:26.388Z,100351.38
2024-05-09T04:53:54.193Z,100355.59
2024-05-09T04:56:24.650Z,100353.84
2024-05-09T04:58:52.581Z,100358.91
2024-05-09T05:01:25.629Z,100349.44
2024-05-09T05:03:55.893Z,100355.28
2024-05-09T05:06:27.804Z,100356.03
2024-05-09T05:08:55.930Z,100350.00
2024-05-09T05:11:26.667Z,100355.84
2024-05-09T05:13:54.666Z,100356.63
2024-05-09T05:16:27.685Z,100349.75
2024-05-09T05:18:55.625Z,100356.44
2024-05-09T05:21:26.183Z,100368.34
2024-05-09T05:23:54.200Z,100364.84
2024-05-09T05:26:24.665Z,100366.41
2024-05-09T05:28:52.788Z,100376.66
2024-05-09T05:31:23.290Z,100372.31
2024-05-09T05:33:53.904Z,100376.53
2024-05-09T05:36:24.328Z,100367.81
2024-05-09T05:38:52.248Z,100366.00
2024-05-09T05:41:26.256Z,100363.28
2024-05-09T05:43:54.102Z,100369.06
2024-05-09T05:46:24.456Z,100369.72
2024-05-09T05:48:55.077Z,100373.91
2024-05-09T05:51:25.553Z,100383.09
2024-05-09T05:53:55.214Z,100367.63
2024-05-09T05:56:25.658Z,100383.66
2024-05-09T05:58:55.406Z,100369.09
2024-05-09T06:01:25.860Z,100374.00
2024-05-09T06:03:56.298Z,100374.72
2024-05-09T06:06:26.746Z,100383.16
2024-05-09T06:08:55.204Z,100386.38
2024-05-09T06:11:25.779Z,100374.22
2024-05-09T06:13:53.590Z,100380.09
2024-05-09T06:16:24.346Z,100376.44
2024-05-09T06:18:52.222Z,100376.16
2024-05-09T06:21:25.615Z,100379.41
2024-05-09T06:23:54.737Z,100371.53
2024-05-09T06:26:25.146Z,100373.00
2024-05-09T06:28:53.034Z,100374.56
2024-05-09T06:31:23.567Z,100381.97
2024-05-09T06:33:51.374Z,100376.69
2024-05-09T06:36:24.675Z,100379.06
2024-05-09T06:38:52.395Z,100384.78
2024-05-09T06:41:23.159Z,100368.28
2024-05-09T06:43:51.722Z,100371.53
2024-05-09T06:46:22.215Z,100369.53
2024-05-09T06:48:50.649Z,100369.28
2024-05-09T06:51:21.408Z,100369.81
2024-05-09T06:53:51.788Z,100358.44
2024-05-09T06:56:22.317Z,100357.38
2024-05-09T06:58:50.267Z,100364.78
2024-05-09T07:01:20.775Z,100367.91
2024-05-09T07:03:49.002Z,100370.28
2024-05-09T07:06:19.410Z,100374.31
2024-05-09T07:08:52.371Z,100374.13
2024-05-09T07:11:23.433Z,100365.41
2024-05-09T07:13:53.983Z,100366.88
2024-05-09T07:16:21.730Z,100357.38
2024-05-09T07:18:55.202Z,100366.53
2024-05-09T07:21:23.289Z,100361.22
2024-05-09T07:23:54.011Z,100368.72
2024-05-09T07:26:24.482Z,100365.97
2024-05-09T07:28:55.178Z,100362.31
2024-05-09T07:31:23.515Z,100363.84
2024-05-09T07:33:54.103Z,100355.22
2024-05-09T07:36:22.066Z,100364.38
2024-05-09T07:38:52.553Z,100361.66
2024-05-09T07:41:20.582Z,100357.22
2024-05-09T07:43:53.657Z,100356.13
2024-05-09T07:50:35.225Z,100349.78
2024-05-09T07:54:17.397Z,100358.78
2024-05-09T07:56:45.668Z,100359.31
2024-05-09T07:59:18.737Z,100353.81
2024-05-09T08:01:46.678Z,100346.66
2024-05-09T08:04:17.367Z,100341.00
2024-05-09T08:06:45.232Z,100344.00
2024-05-09T08:09:20.590Z,100341.88
2024-05-09T08:11:52.799Z,100344.88
2024-05-09T08:14:25.891Z,100341.09
2024-05-09T08:16:53.726Z,100346.56
2024-05-09T08:19:24.209Z,100342.69
2024-05-09T08:21:52.048Z,100339.59
2024-05-09T08:24:22.588Z,100331.38
2024-05-09T08:26:50.420Z,100324.81
2024-05-09T08:29:20.790Z,100322.63
2024-05-09T08:31:56.172Z,100322.97
2024-05-09T08:34:26.744Z,100323.41
2024-05-09T08:36:56.286Z,100324.84
2024-05-09T08:39:28.267Z,100331.34
2024-05-09T08:41:56.024Z,100324.97
2024-05-09T08:44:26.817Z,100324.53
2024-05-09T08:46:57.473Z,100331.84
2024-05-09T08:49:29.317Z,100326.25
2024-05-09T08:51:57.288Z,100330.78
2024-05-09T08:54:27.788Z,100325.00
2024-05-09T08:56:55.589Z,100325.19
2024-05-09T08:59:35.672Z,100323.50
2024-05-09T09:02:09.344Z,100322.44
2024-05-09T09:04:43.768Z,100314.81
2024-05-09T09:07:12.127Z,100326.69
2024-05-09T09:09:47.917Z,100322.50
2024-05-09T09:12:15.951Z,100323.63
2024-05-09T09:14:46.454Z,100323.66
2024-05-09T09:17:17.768Z,100322.66
2024-05-09T09:19:48.284Z,100309.59
2024-05-09T09:22:16.284Z,100311.84
2024-05-09T09:24:46.792Z,100314.31
2024-05-09T09:27:15.072Z,100310.25
2024-05-09T09:29:45.673Z,100316.56
2024-05-09T09:32:13.454Z,100313.97
2024-05-09T09:34:46.511Z,100306.81
2024-05-09T09:37:14.937Z,100313.56
2024-05-09T09:39:48.898Z,100303.19
2024-05-09T09:42:18.701Z,100315.88
2024-05-09T09:44:58.150Z,100314.78
2024-05-09T09:47:33.700Z,100300.41
2024-05-09T09:50:14.202Z,100307.44
2024-05-09T09:52:45.417Z,100291.56
2024-05-09T09:55:16.758Z,100304.25
2024-05-09T09:57:45.097Z,100296.13
2024-05-09T10:00:24.002Z,100304.22
2024-05-09T10:02:55.332Z,100295.88
2024-05-09T10:05:28.651Z,100297.56
2024-05-09T10:07:58.201Z,100293.00
2024-05-09T10:10:32.493Z,100291.25
2024-05-09T10:13:03.685Z,100290.88
2024-05-09T10:15:34.417Z,100292.66
2024-05-09T10:18:06.576Z,100294.38
2024-05-09T10:20:51.845Z,100285.34
2024-05-09T10:23:25.221Z,100281.50
2024-05-09T10:26:03.088Z,100277.84
2024-05-09T10:28:33.191Z,100275.44
2024-05-09T10:31:11.315Z,100275.50
2024-05-09T10:33:40.434Z,100277.09
2024-05-09T10:36:17.733Z,100275.94
2024-05-09T10:38:46.019Z,100270.88
2024-05-09T10:41:16.532Z,100277.09
2024-05-09T10:43:44.851Z,100277.41
2024-05-09T10:46:15.704Z,100274.78
2024-05-09T10:48:44.558Z,100272.38
2024-05-09T10:51:18.009Z,100264.72
2024-05-09T10:53:47.059Z,100261.16
2024-05-09T10:56:18.272Z,100259.19
2024-05-09T10:58:46.062Z,100253.69
2024-05-09T11:01:16.631Z,100259.06
2024-05-09T11:03:47.757Z,100249.72
2024-05-09T11:06:21.562Z,100247.00
2024-05-09T11:08:53.712Z,100253.72
2024-05-09T11:11:21.902Z,100248.97
2024-05-09T11:13:52.302Z,100243.31
2024-05-09T11:16:21.456Z,100240.03
2024-05-09T11:19:01.299Z,100231.66
2024-05-09T11:21:31.880Z,100235.34
2024-05-09T11:24:02.534Z,100229.41
2024-05-09T11:26:32.914Z,100229.44
2024-05-09T11:29:03.354Z,100235.31
2024-05-09T11:31:31.348Z,100229.25
2024-05-09T11:34:05.357Z,100235.09
2024-05-09T11:36:35.879Z,100227.13
2024-05-09T11:39:06.445Z,100218.13
2024-05-09T11:41:36.004Z,100216.47
2024-05-09T11:44:07.086Z,100225.63
2024-05-09T11:46:35.887Z,100226.94
2024-05-09T11:49:06.457Z,100217.06
2024-05-09T11:51:37.151Z,100212.16
2024-05-09T11:54:07.561Z,100203.94
2024-05-09T11:56:35.432Z,100207.72
2024-05-09T11:59:06.239Z,100203.59
2024-05-09T12:01:34.230Z,100200.41
2024-05-09T12:04:05.118Z,100188.59
2024-05-09T12:06:36.128Z,100192.25
2024-05-09T12:09:06.688Z,100199.25
2024-05-09T12:11:34.424Z,100202.88
2024-05-09T12:14:04.802Z,100204.78
2024-05-09T12:16:32.854Z,100192.94
2024-05-09T12:19:03.600Z,100199.03
2024-05-09T12:21:31.491Z,100198.44
2024-05-09T12:24:04.638Z,100183.19
2024-05-09T12:26:32.439Z,100180.00
2024-05-09T12:29:02.861Z,100179.31
2024-05-09T12:31:30.847Z,100181.91
2024-05-09T12:34:01.637Z,100170.88
2024-05-09T12:36:29.979Z,100171.78
2024-05-09T12:39:03.107Z,100171.06
2024-05-09T12:41:30.881Z,100171.31
2024-05-09T12:44:01.389Z,100172.38
2024-05-09T12:46:29.259Z,100168.97
2024-05-09T12:48:59.852Z,100164.75
2024-05-09T12:51:27.740Z,100148.44
2024-05-09T12:53:58.180Z,100148.56
2024-05-09T12:56:28.929Z,100140.81
2024-05-09T12:58:59.420Z,100160.53
2024-05-09T13:01:27.291Z,100154.56
2024-05-09T13:03:57.912Z,100156.28
2024-05-09T13:06:25.866Z,100146.09
2024-05-09T13:08:56.430Z,100138.38
2024-05-09T13:11:24.157Z,100140.25
2024-05-09T13:13:57.504Z,100140.38
2024-05-09T13:16:25.582Z,100142.25
2024-05-09T13:18:56.230Z,100136.16
2024-05-09T13:21:24.013Z,100133.44
2024-05-09T13:23:56.198Z,100124.66
2024-05-09T13:26:24.839Z,100124.66
2024-05-09T13:28:57.886Z,100112.69
2024-05-09T13:31:25.976Z,100117.06
2024-05-09T13:33:57.097Z,100117.16
2024-05-09T13:36:25.002Z,100115.66
2024-05-09T13:38:56.601Z,100106.38
2024-05-09T13:41:24.467Z,100105.66
2024-05-09T13:43:57.479Z,100093.69
2024-05-09T13:46:25.308Z,100096.28
2024-05-09T13:48:55.922Z,100102.41
2024-05-09T13:51:23.772Z,100093.03
2024-05-09T13:53:54.224Z,100093.94
2024-05-09T13:56:22.195Z,100092.28
2024-05-09T13:58:52.898Z,100090.69
2024-05-09T14:01:23.350Z,100089.84
2024-05-09T14:03:54.026Z,100087.38
2024-05-09T14:06:22.130Z,100077.06
2024-05-09T14:08:52.774Z,100081.28
2024-05-09T14:11:20.726Z,100071.66
2024-05-09T14:13:51.136Z,100069.09
2024-05-09T14:16:19.026Z,100071.59
2024-05-09T14:18:52.174Z,100064.66
2024-05-09T14:21:20.040Z,100069.00
2024-05-09T14:23:50.448Z,100059.38
2024-05-09T14:26:18.389Z,100062.88
2024-05-09T14:28:48.819Z,100057.72
2024-05-09T14:31:16.775Z,100044.03
2024-05-09T14:33:47.295Z,100045.81
2024-05-09T14:36:17.812Z,100042.50
2024-05-09T14:38:48.242Z,100047.78
2024-05-09T14:41:16.034Z,100042.63
2024-05-09T14:43:46.382Z,100047.78
2024-05-09T14:46:14.300Z,100046.97
2024-05-09T14:48:45.279Z,100033.13
2024-05-09T14:51:13.156Z,100035.81
2024-05-09T14:53:46.422Z,100027.16
2024-05-09T14:56:14.984Z,100026.22
2024-05-09T14:58:45.453Z,100022.69
2024-05-09T15:01:13.451Z,100020.97
2024-05-09T15:03:44.128Z,100027.75
2024-05-09T15:06:12.275Z,100023.41
2024-05-09T15:08:45.419Z,100015.56
2024-05-09T15:11:13.634Z,100013.78
2024-05-09T15:13:44.435Z,100001.72
2024-05-09T15:16:12.231Z,100001.59
2024-05-09T15:18:44.046Z,99999.75
2024-05-09T15:21:11.956Z,100000.69
2024-05-09T15:23:45.447Z,99988.59
2024-05-09T15:26:13.224Z,99986.84
2024-05-09T15:28:44.130Z,99992.00
2024-05-09T15:31:11.853Z,99986.03
2024-05-09T15:33:42.864Z,100001.59
2024-05-09T15:36:10.926Z,99997.38
2024-05-09T15:38:41.989Z,99989.78
2024-05-09T15:41:13.443Z,99994.13
2024-05-09T15:43:44.008Z,99996.81
2024-05-09T15:46:12.157Z,99991.75
2024-05-09T15:48:44.840Z,99989.19
2024-05-09T15:51:12.812Z,99987.75
2024-05-09T15:53:43.157Z,99977.78
2024-05-09T15:56:13.791Z,99989.53
2024-05-09T15:58:44.232Z,99975.25
2024-05-09T16:01:14.489Z,99976.28
2024-05-09T16:03:45.204Z,99976.53
2024-05-09T16:06:13.255Z,99977.47
2024-05-09T16:08:43.661Z,99982.84
2024-05-09T16:11:17.101Z,99980.28
2024-05-09T16:13:47.714Z,99979.59
2024-05-09T16:16:15.745Z,99978.78
2024-05-09T16:18:46.226Z,99978.88
2024-05-09T16:21:14.062Z,99977.25
2024-05-09T16:23:44.406Z,99978.06
2024-05-09T16:26:14.848Z,99973.72
2024-05-09T16:28:45.228Z,99978.88
2024-05-09T16:31:12.998Z,99975.50
2024-05-09T16:33:44.086Z,99976.28
2024-05-09T16:36:13.393Z,99972.09
2024-05-09T16:38:46.095Z,99962.72
2024-05-09T16:41:16.493Z,99961.91
2024-05-09T16:43:47.139Z,99958.50
2024-05-09T16:46:16.460Z,99960.41
2024-05-09T16:48:47.926Z,99963.09
2024-05-09T16:51:15.706Z,99969.19
2024-05-09T16:53:46.113Z,99964.16
2024-05-09T16:56:16.569Z,99963.31
2024-05-09T16:58:47.200Z,99962.50
2024-05-09T17:01:15.169Z,99972.81
2024-05-09T17:03:46.198Z,99965.88
2024-05-09T17:06:14.189Z,99962.50
2024-05-09T17:08:45.020Z,99963.31
2024-05-09T17:11:15.775Z,99965.88
2024-05-09T17:13:48.221Z,99964.16
2024-05-09T17:16:21.021Z,99964.25
2024-05-09T17:18:51.718Z,99963.44
2024-05-09T17:21:24.820Z,99953.25
2024-05-09T17:23:55.724Z,99964.50
2024-05-09T17:26:31.772Z,99958.66
2024-05-09T17:29:00.888Z,99966.50
2024-05-09T17:31:31.544Z,99963.94
2024-05-09T17:33:59.496Z,99959.69
2024-05-09T17:36:30.270Z,99955.47
2024-05-09T17:38:58.240Z,99964.13
2024-05-09T17:41:31.281Z,99965.09
2024-05-09T17:43:59.010Z,99966.84
2024-05-09T17:46:29.563Z,99964.38
2024-05-09T17:49:00.416Z,99965.31
2024-05-09T17:51:35.683Z,99962.88
2024-05-09T17:54:03.618Z,99963.91
2024-05-09T17:56:36.646Z,99966.59
2024-05-09T17:59:05.974Z,99965.09
2024-05-09T18:01:37.597Z,99960.06
2024-05-09T18:04:05.987Z,99968.84
2024-05-09T18:06:36.890Z,99961.22
2024-05-09T18:09:04.832Z,99966.38
2024-05-09T18:11:37.833Z,99964.75
2024-05-09T18:14:05.719Z,99960.53
2024-05-09T18:16:36.291Z,99964.84
2024-05-09T18:19:05.044Z,99963.22
2024-05-09T18:21:35.595Z,99966.75
2024-05-09T18:24:03.552Z,99970.25
2024-05-09T18:26:33.960Z,99977.25
2024-05-09T18:29:04.928Z,99959.34
2024-05-09T18:31:35.337Z,99973.28
2024-05-09T18:34:03.291Z,99970.94
2024-05-09T18:36:34.326Z,99971.06
2024-05-09T18:39:02.218Z,99977.25
2024-05-09T18:41:32.565Z,99967.97
2024-05-09T18:44:00.689Z,99973.25
2024-05-09T18:46:33.971Z,99976.06
2024-05-09T18:49:01.987Z,99982.16
2024-05-09T18:51:32.437Z,99973.81
2024-05-09T18:54:00.387Z,99985.16
2024-05-09T18:56:31.089Z,99988.69
2024-05-09T18:58:58.941Z,99976.88
2024-05-09T19:01:29.495Z,99990.78
2024-05-09T19:04:00.153Z,99989.25
2024-05-09T19:06:30.626Z,99995.44
2024-05-09T19:08:58.771Z,99993.91
2024-05-09T19:11:29.260Z,100001.88
2024-05-09T19:13:58.844Z,100013.22
2024-05-09T19:16:29.448Z,100011.81
2024-05-09T19:19:01.178Z,100012.03
2024-05-09T19:21:31.784Z,100009.66
2024-05-09T19:23:59.578Z,100017.63
2024-05-09T19:26:30.388Z,100012.72
2024-05-09T19:28:58.185Z,100018.91
2024-05-09T19:31:29.019Z,100016.56
2024-05-09T19:33:59.739Z,100024.47
2024-05-09T19:36:30.750Z,100022.13
2024-05-09T19:38:58.718Z,100019.78
2024-05-09T19:41:29.223Z,100020.03
2024-05-09T19:43:57.247Z,100023.63
2024-05-09T19:46:27.862Z,100018.69
2024-05-09T19:48:56.052Z,100023.13
2024-05-09T19:51:29.323Z,100017.25
2024-05-09T19:54:00.477Z,100019.25
2024-05-09T19:56:28.714Z,100023.69
2024-05-09T19:58:59.083Z,100018.75
2024-05-09T20:01:27.343Z,100020.72
2024-05-09T20:03:59.357Z,100031.19
2024-05-09T20:06:30.910Z,100021.94
2024-05-09T20:09:01.445Z,100024.63
2024-05-09T20:11:29.442Z,100018.88
2024-05-09T20:13:59.911Z,100030.31
2024-05-09T20:16:27.759Z,100029.72
2024-05-09T20:18:58.509Z,100031.69
2024-05-09T20:21:29.110Z,100032.72
2024-05-09T20:23:59.605Z,100030.38
2024-05-09T20:26:29.941Z,100038.31
2024-05-09T20:29:01.317Z,100044.38
2024-05-09T20:31:29.203Z,100041.06
2024-05-09T20:33:59.888Z,100038.72
2024-05-09T20:36:30.375Z,100039.75
2024-05-09T20:39:00.833Z,100034.00
2024-05-09T20:41:28.602Z,100041.00
2024-05-09T20:44:02.223Z,100041.91
2024-05-09T20:46:30.031Z,100031.84
2024-05-09T20:49:00.884Z,100037.91
2024-05-09T20:51:31.453Z,100042.47
2024-05-09T20:54:01.920Z,100039.97
2024-05-09T20:56:29.762Z,100040.19
2024-05-09T20:59:00.793Z,100043.69
2024-05-09T21:01:28.639Z,100053.16
2024-05-09T21:03:59.179Z,100050.69
2024-05-09T21:06:27.243Z,100047.38
2024-05-09T21:09:00.644Z,100044.94
2024-05-09T21:11:28.418Z,100048.34
2024-05-09T21:13:59.360Z,100045.16
2024-05-09T21:16:27.320Z,100047.81
2024-05-09T21:18:58.052Z,100054.81
2024-05-09T21:21:25.978Z,100047.31
2024-05-09T21:23:59.027Z,100050.00
2024-05-09T21:26:26.823Z,100040.00
2024-05-09T21:28:57.201Z,100044.34
2024-05-09T21:31:25.176Z,100047.00
2024-05-09T21:33:55.693Z,100042.91
2024-05-09T21:36:23.600Z,100047.34
2024-05-09T21:38:53.932Z,100044.84
2024-05-09T21:41:25.254Z,100041.56
2024-05-09T21:43:55.657Z,100041.69
2024-05-09T21:46:24.144Z,100047.72
2024-05-09T21:48:54.770Z,100035.69
2024-05-09T21:51:22.645Z,100041.78
2024-05-09T21:53:52.997Z,100036.72
2024-05-09T21:56:23.457Z,100029.13
2024-05-09T21:58:53.938Z,100030.88
2024-05-09T22:01:23.472Z,100025.81
2024-05-09T22:03:54.384Z,100024.97
2024-05-09T22:06:22.286Z,100032.00
2024-05-09T22:08:52.638Z,100030.44
2024-05-09T22:11:20.528Z,100034.88
2024-05-09T22:13:53.570Z,100035.16
2024-05-09T22:16:21.410Z,100037.09
2024-05-09T22:18:52.023Z,100038.97
2024-05-09T22:21:19.956Z,100035.66
2024-05-09T22:23:51.080Z,100039.19
2024-05-09T22:26:18.805Z,100039.34
2024-05-09T22:28:49.247Z,100041.13
2024-05-09T22:31:19.649Z,100038.66
2024-05-09T22:33:50.286Z,100037.00
2024-05-09T22:36:18.137Z,100027.88
2024-05-09T22:38:48.580Z,100029.72
2024-05-09T22:41:16.306Z,100040.91
2024-05-09T22:43:46.701Z,100035.03
2024-05-09T22:46:14.482Z,100030.84
2024-05-09T22:48:47.650Z,100035.25
2024-05-09T22:51:15.448Z,100027.66
2024-05-09T22:53:45.972Z,100039.75
2024-05-09T22:56:15.277Z,100029.69
2024-05-09T22:58:45.695Z,100030.72
2024-05-09T23:01:15.508Z,100027.44
2024-05-09T23:03:49.483Z,100023.94
2024-05-09T23:06:17.337Z,100025.69
2024-05-09T23:08:47.877Z,100022.31
2024-05-09T23:11:15.681Z,100026.69
2024-05-09T23:13:46.160Z,100019.00
2024-05-09T23:16:14.028Z,100017.34
2024-05-09T23:18:44.605Z,100018.28
2024-05-09T23:21:15.069Z,100032.03
2024-05-09T23:23:45.850Z,100023.53
2024-05-09T23:26:13.671Z,100018.41
2024-05-09T23:28:44.411Z,100016.84
2024-05-09T23:31:12.218Z,100028.03
2024-05-09T23:33:48.956Z,100030.88
2024-05-09T23:36:19.375Z,100026.78
2024-05-09T23:38:50.076Z,100028.72
2024-05-09T23:41:20.612Z,100027.19
2024-05-09T23:43:48.416Z,100023.06
2024-05-09T23:46:18.895Z,100022.44
2024-05-09T23:48:46.775Z,100023.38
2024-05-09T23:51:18.146Z,100019.16
2024-05-09T23:53:48.703Z,100011.56
2024-05-09T23:56:21.246Z,100022.63
2024-05-09T23:58:49.280Z,100020.06
